Time;durP1;ratioP1;P1;durP2;ratioP2;P2;SDS_P1;SDS_P2;PMS_P1;PMS_P2;Temp;Humidity;BMP_temperature;BMP_pressure;BME280_temperature;BME280_humidity;BME280_pressure;Samples;Min_cycle;Max_cycle;Signal;HPM_P1;HPM_P2
2022/10/10 00:01:31;;;;;;;2.40;1.38;;;9.80;99.90;;;;;;4989947;28;20110;-81
2022/10/10 00:03:58;;;;;;;2.90;1.40;;;9.70;99.90;;;;;;4968791;28;20026;-81
2022/10/10 00:06:24;;;;;;;2.20;1.23;;;9.60;99.90;;;;;;4973910;28;20035;-81
2022/10/10 00:08:51;;;;;;;2.45;1.40;;;9.50;99.90;;;;;;4973767;28;20053;-81
2022/10/10 00:11:23;;;;;;;2.25;1.45;;;9.50;99.90;;;;;;4975344;28;20143;-81
2022/10/10 00:13:52;;;;;;;2.40;1.40;;;9.40;99.90;;;;;;4980835;28;20534;-81
2022/10/10 00:16:23;;;;;;;3.25;1.63;;;9.30;99.90;;;;;;4984466;28;20051;-80
2022/10/10 00:18:51;;;;;;;2.40;1.23;;;9.30;99.90;;;;;;4978340;28;20027;-80
2022/10/10 00:21:20;;;;;;;1.80;1.15;;;9.20;99.90;;;;;;4974588;28;20065;-81
2022/10/10 00:23:54;;;;;;;2.53;1.30;;;9.20;99.90;;;;;;4974422;28;20023;-81
2022/10/10 00:26:26;;;;;;;5.00;1.52;;;9.20;99.90;;;;;;4972555;28;20022;-81
2022/10/10 00:29:00;;;;;;;2.17;1.20;;;9.20;99.90;;;;;;4974202;28;20026;-81
2022/10/10 00:31:29;;;;;;;;;;;9.10;99.90;;;;;;4973924;28;20027;-81
2022/10/10 00:34:05;;;;;;;1.98;1.17;;;9.10;99.90;;;;;;4973221;28;19968;-82
2022/10/10 00:36:31;;;;;;;3.60;1.50;;;9.10;99.90;;;;;;4974684;28;20050;-82
2022/10/10 00:39:04;;;;;;;2.50;1.60;;;9.00;99.90;;;;;;4980532;28;20019;-82
2022/10/10 00:41:34;;;;;;;2.92;1.45;;;9.00;99.90;;;;;;4980241;28;20077;-81
2022/10/10 00:44:15;;;;;;;2.85;1.60;;;9.00;99.90;;;;;;4979470;28;20046;-81
2022/10/10 00:46:45;;;;;;;2.33;1.20;;;9.00;99.90;;;;;;4979508;28;20023;-81
2022/10/10 00:49:16;;;;;;;3.03;1.40;;;8.90;99.90;;;;;;4979279;28;20083;-81
2022/10/10 00:51:46;;;;;;;3.20;1.70;;;8.90;99.90;;;;;;4980267;28;20019;-82
2022/10/10 00:54:15;;;;;;;3.05;1.60;;;8.90;99.90;;;;;;4980204;28;20035;-82
2022/10/10 00:56:50;;;;;;;3.70;1.60;;;8.80;99.90;;;;;;4979401;28;20096;-81
2022/10/10 00:59:18;;;;;;;2.72;1.85;;;8.80;99.90;;;;;;4993391;28;20023;-82
2022/10/10 01:01:46;;;;;;;2.55;1.50;;;8.80;99.90;;;;;;4980106;28;20034;-82
2022/10/10 01:04:36;;;;;;;2.45;1.27;;;8.70;99.90;;;;;;4975524;28;20031;-83
2022/10/10 01:07:11;;;;;;;4.10;1.60;;;8.70;99.90;;;;;;4979455;28;20031;-82
2022/10/10 01:09:40;;;;;;;3.30;1.60;;;8.60;99.90;;;;;;4955097;28;20062;-82
2022/10/10 01:12:18;;;;;;;2.15;1.33;;;8.60;99.90;;;;;;4984456;28;20014;-81
2022/10/10 01:15:08;;;;;;;3.35;1.60;;;8.60;99.90;;;;;;4989743;28;20030;-81
2022/10/10 01:18:02;;;;;;;3.70;1.98;;;8.50;99.90;;;;;;4986217;28;20027;-81
2022/10/10 01:21:08;;;;;;;3.35;2.00;;;8.50;99.90;;;;;;4980954;28;20049;-81
2022/10/10 01:23:40;;;;;;;2.72;1.70;;;8.50;99.90;;;;;;4980431;28;20126;-82
2022/10/10 01:26:18;;;;;;;3.35;1.65;;;8.50;99.90;;;;;;4981547;28;20011;-81
2022/10/10 01:29:00;;;;;;;2.55;1.65;;;8.40;99.90;;;;;;4980661;28;20031;-82
2022/10/10 01:31:30;;;;;;;2.78;1.73;;;8.40;99.90;;;;;;4980601;28;20114;-81
2022/10/10 01:34:39;;;;;;;3.15;1.77;;;8.40;99.90;;;;;;4981061;28;20033;-81
2022/10/10 01:37:19;;;;;;;3.40;1.65;;;8.40;99.90;;;;;;4962440;28;20035;-80
2022/10/10 01:39:57;;;;;;;3.40;1.70;;;8.30;99.90;;;;;;4947735;29;20034;-81
2022/10/10 01:42:43;;;;;;;5.68;2.47;;;8.30;99.90;;;;;;4968656;28;20537;-82
2022/10/10 01:45:09;;;;;;;4.15;1.80;;;8.30;99.90;;;;;;4979134;28;20093;-81
2022/10/10 01:47:36;;;;;;;5.00;1.85;;;8.30;99.90;;;;;;4980876;28;20026;-81
2022/10/10 01:50:07;;;;;;;3.15;1.70;;;8.20;99.90;;;;;;4968929;28;20028;-80
2022/10/10 01:52:58;;;;;;;3.50;1.63;;;8.20;99.90;;;;;;4971717;28;20031;-81
2022/10/10 01:55:54;;;;;;;3.08;1.80;;;8.20;99.90;;;;;;4976989;28;20062;-81
2022/10/10 01:58:48;;;;;;;3.00;1.42;;;8.20;99.90;;;;;;4965275;28;20034;-81
2022/10/10 02:01:33;;;;;;;3.25;1.75;;;8.20;99.90;;;;;;4976536;28;20126;-81
2022/10/10 02:04:14;;;;;;;5.30;2.25;;;8.20;99.90;;;;;;4970901;28;20027;-81
2022/10/10 02:06:50;;;;;;;3.72;1.77;;;8.10;99.90;;;;;;4971497;28;20113;-80
2022/10/10 02:09:34;;;;;;;3.63;1.80;;;8.10;99.90;;;;;;4976210;28;20435;-81
2022/10/10 02:12:03;;;;;;;2.67;1.80;;;8.10;99.90;;;;;;4976228;28;20037;-82
2022/10/10 02:14:43;;;;;;;3.47;1.92;;;8.00;99.90;;;;;;4976295;28;20035;-81
2022/10/10 02:17:13;;;;;;;3.00;1.90;;;8.10;99.90;;;;;;4976146;28;20050;-82
2022/10/10 02:19:50;;;;;;;3.22;1.90;;;8.00;99.90;;;;;;4976068;28;20492;-81
2022/10/10 02:22:19;;;;;;;5.43;1.90;;;8.00;99.90;;;;;;4977170;28;20019;-82
2022/10/10 02:24:53;;;;;;;3.22;1.75;;;8.00;99.90;;;;;;4976096;28;20478;-82
2022/10/10 02:27:49;;;;;;;2.65;1.90;;;8.00;99.90;;;;;;4976998;28;20111;-82
2022/10/10 02:30:21;;;;;;;3.03;1.77;;;8.00;99.90;;;;;;4977230;28;20058;-81
2022/10/10 02:32:57;;;;;;;3.60;1.90;;;7.90;99.90;;;;;;4983777;28;20023;-81
2022/10/10 02:35:48;;;;;;;2.75;1.88;;;8.00;99.90;;;;;;4972093;28;20031;-82
2022/10/10 02:38:18;;;;;;;3.03;1.77;;;7.90;99.90;;;;;;4969641;28;20027;-81
2022/10/10 02:40:49;;;;;;;4.13;2.05;;;7.80;99.90;;;;;;4962457;28;20086;-82
2022/10/10 02:43:21;;;;;;;4.32;2.08;;;7.80;99.90;;;;;;4972418;28;20531;-82
2022/10/10 02:45:51;;;;;;;3.30;1.73;;;7.80;99.90;;;;;;4967550;28;20031;-82
2022/10/10 02:48:23;;;;;;;2.95;1.85;;;7.80;99.90;;;;;;4975461;28;20035;-82
2022/10/10 02:50:55;;;;;;;2.83;1.60;;;7.80;99.90;;;;;;4975405;28;20023;-82
2022/10/10 02:53:24;;;;;;;2.70;1.73;;;7.80;99.90;;;;;;4962489;28;20038;-81
2022/10/10 02:55:54;;;;;;;3.92;1.80;;;7.80;99.90;;;;;;4975541;28;20031;-81
2022/10/10 02:58:29;;;;;;;2.80;1.63;;;7.80;99.90;;;;;;4975430;28;20023;-81
2022/10/10 03:00:58;;;;;;;3.78;1.50;;;7.80;99.90;;;;;;4988348;28;20026;-82
2022/10/10 03:03:28;;;;;;;2.65;1.50;;;7.80;99.90;;;;;;4992881;28;20034;-80
2022/10/10 03:05:57;;;;;;;4.00;1.70;;;7.70;99.90;;;;;;4997622;28;20022;-80
2022/10/10 03:08:23;;;;;;;2.67;1.58;;;7.70;99.90;;;;;;4984181;28;20134;-82
2022/10/10 03:10:59;;;;;;;4.55;1.90;;;7.70;99.90;;;;;;4963709;28;20049;-82
2022/10/10 03:13:28;;;;;;;3.40;1.95;;;7.70;99.90;;;;;;4975998;28;20038;-82
2022/10/10 03:15:57;;;;;;;3.85;1.75;;;7.70;99.90;;;;;;4974886;28;20061;-81
2022/10/10 03:18:29;;;;;;;4.60;2.33;;;7.70;99.90;;;;;;4975266;28;20027;-81
2022/10/10 03:21:04;;;;;;;2.22;1.55;;;7.60;99.90;;;;;;4975081;28;20074;-82
2022/10/10 03:23:34;;;;;;;1.75;1.40;;;7.60;99.90;;;;;;4975248;28;20034;-81
2022/10/10 03:26:04;;;;;;;3.22;1.90;;;7.70;99.90;;;;;;4976189;28;20014;-81
2022/10/10 03:28:35;;;;;;;3.38;1.83;;;7.60;99.90;;;;;;4975023;28;20035;-81
2022/10/10 03:31:05;;;;;;;2.60;1.55;;;7.60;99.90;;;;;;4974641;28;20166;-81
2022/10/10 03:33:34;;;;;;;3.40;2.00;;;7.60;99.90;;;;;;4975945;28;20109;-82
2022/10/10 03:36:02;;;;;;;2.92;1.85;;;7.60;99.90;;;;;;4976269;28;20473;-81
2022/10/10 03:38:30;;;;;;;2.75;1.80;;;7.60;99.90;;;;;;4974574;28;20057;-82
2022/10/10 03:40:58;;;;;;;3.05;1.63;;;7.60;99.90;;;;;;4975396;28;20410;-82
2022/10/10 03:43:24;;;;;;;4.88;1.90;;;7.60;99.90;;;;;;4967868;28;20035;-82
2022/10/10 03:45:51;;;;;;;3.33;1.67;;;7.60;99.90;;;;;;4968768;28;20029;-81
2022/10/10 03:48:17;;;;;;;3.40;1.85;;;7.60;99.90;;;;;;4974634;28;20033;-82
2022/10/10 03:50:43;;;;;;;2.53;1.70;;;7.60;99.90;;;;;;4975459;28;20023;-81
2022/10/10 03:53:10;;;;;;;2.55;1.60;;;7.60;99.90;;;;;;4975352;28;20030;-81
2022/10/10 03:55:42;;;;;;;3.30;1.60;;;7.60;99.90;;;;;;4974474;28;20586;-81
2022/10/10 03:58:12;;;;;;;2.72;1.80;;;7.60;99.90;;;;;;4975460;28;20014;-81
2022/10/10 04:00:41;;;;;;;5.03;1.83;;;7.50;99.90;;;;;;4974301;28;20027;-81
2022/10/10 04:03:08;;;;;;;2.55;1.55;;;7.50;99.90;;;;;;4974194;28;20022;-82
2022/10/10 04:05:41;;;;;;;3.47;1.90;;;7.50;99.90;;;;;;4975245;28;20030;-82
2022/10/10 04:08:11;;;;;;;;;;;7.50;99.90;;;;;;4974161;28;20125;-82
2022/10/10 04:10:41;;;;;;;2.92;1.70;;;7.40;99.90;;;;;;4973958;28;20004;-82
2022/10/10 04:13:08;;;;;;;3.53;1.70;;;7.40;99.90;;;;;;4974270;28;20045;-82
2022/10/10 04:15:34;;;;;;;1.88;1.25;;;7.40;99.90;;;;;;4973871;28;20031;-82
2022/10/10 04:18:01;;;;;;;2.75;1.70;;;7.40;99.90;;;;;;4973884;28;20030;-81
2022/10/10 04:20:34;;;;;;;2.83;1.70;;;7.30;99.90;;;;;;4973391;28;20024;-82
2022/10/10 04:23:01;;;;;;;3.25;1.90;;;7.30;99.90;;;;;;4974371;28;20026;-81
2022/10/10 04:25:32;;;;;;;3.00;1.67;;;7.30;99.90;;;;;;4973600;28;20121;-82
2022/10/10 04:28:01;;;;;;;3.33;1.95;;;7.30;99.90;;;;;;4973836;28;20425;-82
2022/10/10 04:30:34;;;;;;;2.45;1.52;;;7.30;99.90;;;;;;4974551;28;20022;-83
2022/10/10 04:33:03;;;;;;;3.72;1.70;;;7.20;99.90;;;;;;4973917;28;20030;-82
2022/10/10 04:35:32;;;;;;;3.35;1.83;;;7.20;99.90;;;;;;4973173;28;20023;-82
2022/10/10 04:37:58;;;;;;;4.00;2.03;;;7.20;99.90;;;;;;4973883;28;20026;-83
2022/10/10 04:40:24;;;;;;;3.72;1.83;;;7.20;99.90;;;;;;4973531;28;20105;-82
2022/10/10 04:42:50;;;;;;;2.75;1.63;;;7.10;99.90;;;;;;4971031;28;20029;-81
2022/10/10 04:45:18;;;;;;;2.95;1.90;;;7.10;99.90;;;;;;4961662;28;20476;-83
2022/10/10 04:47:46;;;;;;;3.95;2.05;;;7.10;99.90;;;;;;4974494;28;20023;-82
2022/10/10 04:50:12;;;;;;;3.20;1.67;;;7.10;99.90;;;;;;4989312;28;20023;-82
2022/10/10 04:52:38;;;;;;;3.60;1.90;;;7.10;99.90;;;;;;4985401;28;20029;-83
2022/10/10 04:55:08;;;;;;;2.72;1.50;;;7.10;99.90;;;;;;4993979;28;20101;-82
2022/10/10 04:57:40;;;;;;;3.33;2.08;;;7.00;99.90;;;;;;4974461;28;20027;-82
2022/10/10 05:00:08;;;;;;;3.17;1.65;;;7.00;99.90;;;;;;4972537;28;20022;-81
2022/10/10 05:02:34;;;;;;;2.90;1.67;;;7.00;99.90;;;;;;4971253;28;20031;-81
2022/10/10 05:05:01;;;;;;;2.58;1.77;;;7.00;99.90;;;;;;4973455;28;20472;-82
2022/10/10 05:07:26;;;;;;;4.00;1.85;;;6.90;99.90;;;;;;4971773;28;20336;-82
2022/10/10 05:09:52;;;;;;;3.30;1.67;;;6.90;99.90;;;;;;4971688;28;20027;-82
2022/10/10 05:12:19;;;;;;;3.80;2.00;;;6.90;99.90;;;;;;4972109;28;20023;-82
2022/10/10 05:14:45;;;;;;;3.65;1.85;;;6.90;99.90;;;;;;4971491;28;20039;-82
2022/10/10 05:17:11;;;;;;;3.30;1.90;;;6.90;99.90;;;;;;4972232;28;20027;-82
2022/10/10 05:19:37;;;;;;;2.92;1.70;;;6.80;99.90;;;;;;4971738;28;20027;-81
2022/10/10 05:22:03;;;;;;;4.32;2.10;;;6.80;99.90;;;;;;4988351;28;20034;-83
2022/10/10 05:24:29;;;;;;;5.07;2.10;;;6.80;99.90;;;;;;4972611;28;20467;-82
2022/10/10 05:26:56;;;;;;;2.60;1.88;;;6.80;99.90;;;;;;4959317;28;20469;-82
2022/10/10 05:29:23;;;;;;;3.25;2.00;;;6.80;99.90;;;;;;4975583;28;20050;-82
2022/10/10 05:31:49;;;;;;;4.10;2.00;;;6.80;99.90;;;;;;4959322;28;20553;-82
2022/10/10 05:34:16;;;;;;;3.35;2.13;;;6.80;99.90;;;;;;4991592;28;20467;-81
2022/10/10 05:36:42;;;;;;;3.17;1.90;;;6.80;99.90;;;;;;4959498;28;20082;-82
2022/10/10 05:39:08;;;;;;;2.95;1.90;;;6.70;99.90;;;;;;4975950;28;20023;-82
2022/10/10 05:41:35;;;;;;;3.17;1.80;;;6.70;99.90;;;;;;4974884;28;20113;-82
2022/10/10 05:44:05;;;;;;;3.30;1.80;;;6.70;99.90;;;;;;4973870;28;20046;-81
2022/10/10 05:46:34;;;;;;;3.05;1.90;;;6.70;99.90;;;;;;4976087;28;20035;-82
2022/10/10 05:49:03;;;;;;;4.18;2.15;;;6.70;99.90;;;;;;4975152;28;20069;-81
2022/10/10 05:51:29;;;;;;;3.60;1.92;;;6.70;99.90;;;;;;4990801;28;20085;-80
2022/10/10 05:53:59;;;;;;;2.75;1.80;;;6.70;99.90;;;;;;4974915;28;20030;-81
2022/10/10 05:56:25;;;;;;;3.42;2.20;;;6.70;99.90;;;;;;4975751;28;20041;-81
2022/10/10 05:58:54;;;;;;;2.80;1.90;;;6.70;99.90;;;;;;4975257;28;20027;-82
2022/10/10 06:01:21;;;;;;;3.05;1.77;;;6.70;99.90;;;;;;4975457;28;20100;-82
2022/10/10 06:03:54;;;;;;;3.22;2.05;;;6.70;99.90;;;;;;4975699;28;20027;-81
2022/10/10 06:06:29;;;;;;;;;;;6.70;99.90;;;;;;4977450;28;20049;-83
2022/10/10 06:08:58;;;;;;;4.20;1.98;;;6.60;99.90;;;;;;4979842;28;19928;-82
2022/10/10 06:11:28;;;;;;;3.08;2.00;;;6.60;99.90;;;;;;4976885;28;20450;-82
2022/10/10 06:13:57;;;;;;;3.72;2.03;;;6.70;99.90;;;;;;4963640;28;20043;-82
2022/10/10 06:16:32;;;;;;;3.60;1.73;;;6.70;99.90;;;;;;4975940;28;20027;-83
2022/10/10 06:19:01;;;;;;;4.55;2.22;;;6.70;99.90;;;;;;4975932;28;20030;-82
2022/10/10 06:21:29;;;;;;;4.85;2.05;;;6.70;99.90;;;;;;4976727;28;20049;-83
2022/10/10 06:24:14;;;;;;;5.13;2.30;;;6.80;99.90;;;;;;4975661;28;20033;-82
2022/10/10 06:26:47;;;;;;;3.90;2.05;;;6.80;99.90;;;;;;4975547;28;20097;-82
2022/10/10 06:29:19;;;;;;;3.15;1.90;;;6.80;99.90;;;;;;4979523;28;20027;-82
2022/10/10 06:32:15;;;;;;;3.65;2.20;;;6.80;99.90;;;;;;4975746;28;20030;-82
2022/10/10 06:34:44;;;;;;;3.83;2.17;;;6.90;99.90;;;;;;4974271;28;20049;-82
2022/10/10 06:37:11;;;;;;;3.38;2.00;;;6.90;99.90;;;;;;4976479;28;20046;-81
2022/10/10 06:39:45;;;;;;;4.05;2.40;;;6.90;99.90;;;;;;4996052;28;20027;-82
2022/10/10 06:42:11;;;;;;;3.85;2.28;;;7.00;99.90;;;;;;4995794;28;20031;-83
2022/10/10 06:44:40;;;;;;;4.03;2.53;;;7.00;99.90;;;;;;4970328;28;20038;-82
2022/10/10 06:47:09;;;;;;;3.30;2.05;;;7.10;99.90;;;;;;4975552;28;20493;-82
2022/10/10 06:49:40;;;;;;;3.95;2.40;;;7.10;99.90;;;;;;4975660;28;20035;-81
2022/10/10 06:52:17;;;;;;;3.53;2.20;;;7.10;99.90;;;;;;4977257;28;20019;-82
2022/10/10 06:54:52;;;;;;;3.50;2.08;;;7.10;99.90;;;;;;4975225;28;20030;-82
2022/10/10 06:57:24;;;;;;;3.90;1.92;;;7.20;99.90;;;;;;4975568;28;20390;-82
2022/10/10 07:00:01;;;;;;;2.90;2.00;;;7.30;99.90;;;;;;4976002;28;20014;-82
2022/10/10 07:02:30;;;;;;;3.78;2.10;;;7.30;99.90;;;;;;4976884;28;20032;-82
2022/10/10 07:05:02;;;;;;;3.22;2.20;;;7.40;99.90;;;;;;4964514;28;20660;-82
2022/10/10 07:07:34;;;;;;;2.72;2.03;;;7.50;99.90;;;;;;4984518;28;20025;-81
2022/10/10 07:10:03;;;;;;;3.47;1.98;;;7.60;99.90;;;;;;4975520;28;20050;-83
2022/10/10 07:12:37;;;;;;;5.47;2.25;;;7.70;99.90;;;;;;4976298;28;20043;-83
2022/10/10 07:15:06;;;;;;;3.60;2.30;;;7.80;99.90;;;;;;4974994;28;20047;-83
2022/10/10 07:17:39;;;;;;;3.25;2.10;;;7.90;99.90;;;;;;4974496;28;20379;-83
2022/10/10 07:20:08;;;;;;;4.22;2.20;;;8.00;99.90;;;;;;4976071;28;20027;-82
2022/10/10 07:22:37;;;;;;;3.30;2.10;;;8.10;99.90;;;;;;4974512;28;20027;-81
2022/10/10 07:25:12;;;;;;;4.68;2.40;;;8.20;99.90;;;;;;4991017;28;20038;-81
2022/10/10 07:27:48;;;;;;;3.80;2.20;;;8.40;99.90;;;;;;4974765;28;20443;-82
2022/10/10 07:30:14;;;;;;;3.15;1.92;;;8.60;99.90;;;;;;4990455;28;20031;-82
2022/10/10 07:32:40;;;;;;;3.22;2.05;;;8.80;99.90;;;;;;4975483;28;20475;-82
2022/10/10 07:35:08;;;;;;;4.10;2.15;;;9.00;99.90;;;;;;4974151;28;20448;-82
2022/10/10 07:37:44;;;;;;;3.63;2.58;;;9.10;99.90;;;;;;4974274;28;20031;-83
2022/10/10 07:40:10;;;;;;;3.78;2.38;;;9.30;99.90;;;;;;4974494;28;20043;-83
2022/10/10 07:42:36;;;;;;;4.97;2.55;;;9.40;99.90;;;;;;4974465;28;20023;-83
2022/10/10 07:45:10;;;;;;;4.90;2.33;;;9.60;99.90;;;;;;4961936;28;20026;-82
2022/10/10 07:47:40;;;;;;;4.32;2.50;;;9.70;99.90;;;;;;4973364;28;20023;-83
2022/10/10 07:50:07;;;;;;;4.70;2.47;;;9.80;99.90;;;;;;4973905;28;20015;-83
2022/10/10 07:52:34;;;;;;;5.20;2.45;;;9.90;99.90;;;;;;4974944;28;20467;-82
2022/10/10 07:55:04;;;;;;;4.07;2.25;;;10.00;99.90;;;;;;4973305;28;20023;-82
2022/10/10 07:57:34;;;;;;;4.45;2.50;;;10.10;99.90;;;;;;4974989;28;20489;-82
2022/10/10 08:00:02;;;;;;;3.90;2.42;;;10.20;99.90;;;;;;4973431;28;20022;-83
2022/10/10 08:02:29;;;;;;;5.20;2.95;;;10.30;99.90;;;;;;4965768;28;20037;-83
2022/10/10 08:04:57;;;;;;;3.88;2.90;;;10.50;99.90;;;;;;4975083;28;20027;-83
2022/10/10 08:07:23;;;;;;;4.25;2.75;;;10.60;99.90;;;;;;4972865;28;20026;-84
2022/10/10 08:09:50;;;;;;;5.38;2.88;;;10.80;99.90;;;;;;4973409;28;20509;-81
2022/10/10 08:12:19;;;;;;;4.55;2.67;;;11.00;99.90;;;;;;4973118;28;20486;-82
2022/10/10 08:14:45;;;;;;;4.22;3.03;;;11.20;99.90;;;;;;4957661;28;20039;-83
2022/10/10 08:17:13;;;;;;;6.28;3.08;;;11.30;99.90;;;;;;4974177;28;20497;-82
2022/10/10 08:19:39;;;;;;;6.10;3.45;;;11.50;99.90;;;;;;4972959;28;20114;-83
2022/10/10 08:22:05;;;;;;;4.05;2.58;;;11.60;99.90;;;;;;4973342;28;20466;-81
2022/10/10 08:24:31;;;;;;;5.68;3.05;;;11.70;99.90;;;;;;4973530;28;20477;-82
2022/10/10 08:27:19;;;;;;;6.68;2.83;;;11.70;99.90;;;;;;4972759;28;20030;-81
2022/10/10 08:29:44;;;;;;;4.13;2.78;;;11.80;99.90;;;;;;4972794;28;20031;-83
2022/10/10 08:32:11;;;;;;;4.20;3.08;;;11.90;99.90;;;;;;4972906;28;20034;-82
2022/10/10 08:34:46;;;;;;;4.20;2.42;;;11.90;99.90;;;;;;4973116;28;20097;-82
2022/10/10 08:37:12;;;;;;;4.38;2.47;;;12.00;99.90;;;;;;4974389;28;20122;-80
2022/10/10 08:39:48;;;;;;;3.92;2.58;;;12.10;99.90;;;;;;4989600;28;20054;-81
2022/10/10 08:42:29;;;;;;;3.60;2.42;;;12.30;99.90;;;;;;4992472;28;20045;-81
2022/10/10 08:45:08;;;;;;;4.47;2.65;;;12.30;99.90;;;;;;4968713;28;20109;-83
2022/10/10 08:47:54;;;;;;;4.60;2.45;;;12.50;99.90;;;;;;4972338;28;20021;-83
2022/10/10 08:50:50;;;;;;;3.00;2.20;;;12.60;99.90;;;;;;4988085;28;20023;-82
2022/10/10 08:53:44;;;;;;;4.93;2.70;;;12.70;99.90;;;;;;4973579;28;20019;-83
2022/10/10 08:56:14;;;;;;;;;;;12.80;99.90;;;;;;4965880;28;20063;-83
2022/10/10 08:58:49;;;;;;;4.45;2.55;;;12.90;99.90;;;;;;4988564;28;19907;-83
2022/10/10 09:01:33;;;;;;;5.25;2.83;;;13.00;99.90;;;;;;4970874;28;20056;-83
2022/10/10 09:04:02;;;;;;;4.38;3.00;;;13.20;99.90;;;;;;4972333;28;20027;-83
2022/10/10 09:06:47;;;;;;;5.03;3.25;;;13.30;99.90;;;;;;4974205;28;20037;-84
2022/10/10 09:09:31;;;;;;;4.40;2.78;;;13.50;99.90;;;;;;4972940;28;20050;-84
2022/10/10 09:12:05;;;;;;;;;;;14.00;99.90;;;;;;4976694;28;20450;-82
2022/10/10 09:14:49;;;;;;;4.05;2.30;;;15.00;99.90;;;;;;4981951;28;19973;-82
2022/10/10 09:17:38;;;;;;;4.53;2.22;;;16.20;99.90;;;;;;4977530;28;20034;-82
2022/10/10 09:20:26;;;;;;;4.05;1.75;;;17.30;99.90;;;;;;4994295;28;20019;-83
2022/10/10 09:22:54;;;;;;;4.50;2.58;;;17.90;99.90;;;;;;4991706;28;20023;-83
2022/10/10 09:25:33;;;;;;;5.90;3.20;;;18.10;99.90;;;;;;4975999;28;20383;-83
2022/10/10 09:28:15;;;;;;;5.32;2.95;;;17.90;99.90;;;;;;4974691;28;20125;-84
2022/10/10 09:30:58;;;;;;;3.97;2.05;;;17.60;99.90;;;;;;4976440;28;20066;-82
2022/10/10 09:33:26;;;;;;;;;;;17.80;99.90;;;;;;4976481;28;20026;-83
2022/10/10 09:35:58;;;;;;;5.78;2.97;;;17.90;99.90;;;;;;4975665;28;19906;-83
2022/10/10 09:39:03;;;;;;;6.65;2.67;;;18.30;99.90;;;;;;4975699;28;20061;-83
2022/10/10 09:42:09;;;;;;;3.75;2.63;;;19.00;99.90;;;;;;4939621;29;20054;-83
2022/10/10 09:44:37;;;;;;;6.30;2.47;;;19.10;99.90;;;;;;4985731;28;20027;-83
2022/10/10 09:47:06;;;;;;;4.75;2.50;;;19.00;99.90;;;;;;4970209;28;20034;-83
2022/10/10 09:49:33;;;;;;;3.03;2.05;;;19.10;99.90;;;;;;4975808;28;20023;-81
2022/10/10 09:52:16;;;;;;;4.35;2.63;;;19.20;99.90;;;;;;4977040;28;20049;-83
2022/10/10 09:54:46;;;;;;;3.28;2.42;;;19.10;99.90;;;;;;4990131;28;20113;-82
2022/10/10 09:57:15;;;;;;;4.57;2.83;;;19.00;99.90;;;;;;4975271;28;20030;-82
2022/10/10 09:59:45;;;;;;;5.90;2.67;;;18.60;99.90;;;;;;4973624;28;20015;-82
2022/10/10 10:02:26;;;;;;;5.43;2.45;;;18.40;99.90;;;;;;4971939;28;20039;-83
2022/10/10 10:04:54;;;;;;;3.22;2.25;;;18.40;99.90;;;;;;4979831;28;20371;-82
2022/10/10 10:07:35;;;;;;;3.80;2.00;;;18.40;99.90;;;;;;4983514;28;20043;-84
2022/10/10 10:10:18;;;;;;;5.45;2.58;;;18.50;99.90;;;;;;4967587;28;20101;-82
2022/10/10 10:12:47;;;;;;;5.90;2.80;;;18.90;99.90;;;;;;4985479;28;20043;-83
2022/10/10 10:15:20;;;;;;;3.78;2.22;;;19.20;99.90;;;;;;4969102;28;20074;-83
2022/10/10 10:18:09;;;;;;;4.38;2.22;;;19.90;99.90;;;;;;4980483;28;20471;-82
2022/10/10 10:20:46;;;;;;;4.30;2.25;;;20.00;99.90;;;;;;4967945;28;20043;-83
2022/10/10 10:23:31;;;;;;;5.03;2.45;;;19.60;99.90;;;;;;4971681;28;20022;-83
2022/10/10 10:26:13;;;;;;;4.65;2.25;;;19.10;99.90;;;;;;4955453;28;20099;-83
2022/10/10 10:28:40;;;;;;;3.60;2.47;;;18.70;99.90;;;;;;4966376;28;20474;-84
2022/10/10 10:31:49;;;;;;;4.07;2.88;;;18.20;99.90;;;;;;4970954;28;20027;-82
2022/10/10 10:34:15;;;;;;;4.45;2.80;;;17.90;99.90;;;;;;4977441;28;20061;-84
2022/10/10 10:37:23;;;;;;;5.18;3.03;;;17.60;99.90;;;;;;4975974;28;20035;-83
2022/10/10 10:39:55;;;;;;;5.20;2.53;;;17.40;99.90;;;;;;4979703;28;20023;-82
2022/10/10 10:42:45;;;;;;;6.85;3.20;;;17.30;99.90;;;;;;4972682;28;20070;-82
2022/10/10 10:45:46;;;;;;;5.65;3.47;;;17.20;99.90;;;;;;4975912;28;20113;-83
2022/10/10 10:48:31;;;;;;;4.97;2.83;;;17.00;99.90;;;;;;4969267;28;20042;-84
2022/10/10 10:51:26;;;;;;;5.43;2.50;;;17.00;99.90;;;;;;4983153;28;20033;-83
2022/10/10 10:54:13;;;;;;;5.30;2.60;;;17.10;99.90;;;;;;4967288;28;20437;-82
2022/10/10 10:57:01;;;;;;;6.82;3.58;;;17.30;99.90;;;;;;4968037;28;20037;-82
2022/10/10 10:59:49;;;;;;;5.68;3.08;;;17.90;99.90;;;;;;4965359;28;20108;-83
2022/10/10 11:02:49;;;;;;;5.40;2.90;;;18.50;99.90;;;;;;4969602;28;20045;-83
2022/10/10 11:05:26;;;;;;;6.70;3.28;;;19.10;99.90;;;;;;4968656;28;20347;-81
2022/10/10 11:08:07;;;;;;;7.75;3.13;;;19.80;99.90;;;;;;4985438;28;20027;-83
2022/10/10 11:10:43;;;;;;;3.40;2.28;;;21.10;99.90;;;;;;4975105;28;20134;-83
2022/10/10 11:13:27;;;;;;;5.80;2.58;;;22.30;99.90;;;;;;4966804;28;20066;-82
2022/10/10 11:16:02;;;;;;;4.88;2.30;;;23.20;99.90;;;;;;4959376;28;20033;-81
2022/10/10 11:18:34;;;;;;;4.60;2.10;;;24.10;99.90;;;;;;4963843;28;20026;-80
2022/10/10 11:21:18;;;;;;;3.47;1.88;;;24.20;99.90;;;;;;4969151;28;20194;-81
2022/10/10 11:23:52;;;;;;;3.55;1.83;;;23.90;99.90;;;;;;4981202;28;20431;-81
2022/10/10 11:26:23;;;;;;;5.90;2.17;;;24.10;99.90;;;;;;4984890;28;20037;-81
2022/10/10 11:28:54;;;;;;;4.78;2.85;;;24.70;99.90;;;;;;4969482;28;20023;-81
2022/10/10 11:31:25;;;;;;;4.50;2.20;;;24.80;99.90;;;;;;4969114;28;20079;-82
2022/10/10 11:34:01;;;;;;;4.00;1.60;;;24.90;99.90;;;;;;4991011;28;20039;-81
2022/10/10 11:36:35;;;;;;;5.93;3.00;;;25.10;99.90;;;;;;4960745;28;20043;-83
2022/10/10 11:39:10;;;;;;;5.15;2.50;;;24.60;99.90;;;;;;4955040;28;20030;-81
2022/10/10 11:41:42;;;;;;;4.10;2.10;;;23.50;99.90;;;;;;4969539;28;20073;-80
2022/10/10 11:44:18;;;;;;;7.38;2.67;;;22.80;99.90;;;;;;4959697;28;20121;-80
2022/10/10 11:47:10;;;;;;;5.28;1.75;;;22.30;99.90;;;;;;4961629;28;20086;-81
2022/10/10 11:49:56;;;;;;;5.00;2.90;;;21.80;99.90;;;;;;4968667;28;20047;-80
2022/10/10 11:52:40;;;;;;;5.50;2.28;;;21.60;99.90;;;;;;4980934;28;20046;-82
2022/10/10 11:55:39;;;;;;;4.82;2.33;;;21.60;99.90;;;;;;4963954;28;20073;-81
2022/10/10 11:58:06;;;;;;;6.05;2.58;;;21.60;99.90;;;;;;4969140;28;20118;-81
2022/10/10 12:00:42;;;;;;;4.38;2.05;;;21.30;99.90;;;;;;4968237;28;20031;-81
2022/10/10 12:03:09;;;;;;;7.40;2.08;;;20.90;99.90;;;;;;4963649;28;20087;-82
2022/10/10 12:05:39;;;;;;;3.78;2.20;;;20.80;99.90;;;;;;4969801;28;20073;-80
2022/10/10 12:08:31;;;;;;;4.50;2.38;;;21.10;99.90;;;;;;4968293;28;20037;-81
2022/10/10 12:11:24;;;;;;;6.63;2.25;;;22.00;99.90;;;;;;4967325;28;20054;-81
2022/10/10 12:13:58;;;;;;;7.00;2.40;;;22.10;99.90;;;;;;4967201;28;20039;-81
2022/10/10 12:16:27;;;;;;;5.80;2.35;;;22.50;99.90;;;;;;4967829;28;20139;-81
2022/10/10 12:18:58;;;;;;;3.72;1.77;;;23.50;99.90;;;;;;4966452;28;20023;-81
2022/10/10 12:21:25;;;;;;;2.30;1.70;;;24.40;99.90;;;;;;4969550;28;20030;-82
2022/10/10 12:24:11;;;;;;;5.88;2.03;;;25.00;99.90;;;;;;4957337;28;20897;-81
2022/10/10 12:26:55;;;;;;;5.75;1.50;;;24.40;99.90;;;;;;4963910;28;20027;-80
2022/10/10 12:29:55;;;;;;;4.40;1.88;;;23.60;99.90;;;;;;4978066;28;20480;-79
2022/10/10 12:32:53;;;;;;;4.72;1.58;;;22.80;99.90;;;;;;5000668;28;20127;-79
2022/10/10 12:35:38;;;;;;;5.20;1.80;;;22.10;99.90;;;;;;4982023;28;20068;-82
2022/10/10 12:38:17;;;;;;;3.88;1.90;;;21.70;99.90;;;;;;4987503;28;20026;-80
2022/10/10 12:41:06;;;;;;;5.00;2.25;;;21.20;99.90;;;;;;4967931;28;20030;-82
2022/10/10 12:43:49;;;;;;;2.97;1.55;;;20.80;99.90;;;;;;4978516;28;20045;-81
2022/10/10 12:46:21;;;;;;;;;;;20.40;99.90;;;;;;4967536;28;20034;-82
2022/10/10 12:49:03;;;;;;;2.78;1.77;;;19.90;99.90;;;;;;4967969;28;19916;-81
2022/10/10 12:51:34;;;;;;;4.97;2.15;;;19.70;99.90;;;;;;4959191;28;20023;-83
2022/10/10 12:54:03;;;;;;;6.53;2.50;;;19.50;99.90;;;;;;4964405;28;20107;-81
2022/10/10 12:56:44;;;;;;;5.78;2.60;;;19.20;99.90;;;;;;4965313;28;20019;-82
2022/10/10 12:59:20;;;;;;;7.32;2.47;;;19.00;99.90;;;;;;4964203;28;20090;-82
2022/10/10 13:02:02;;;;;;;5.63;2.70;;;18.70;99.90;;;;;;4974984;28;20355;-83
2022/10/10 13:04:32;;;;;;;6.60;3.10;;;18.60;99.90;;;;;;4963228;28;20567;-82
2022/10/10 13:07:00;;;;;;;4.47;2.97;;;18.50;99.90;;;;;;4967921;28;20035;-82
2022/10/10 13:09:32;;;;;;;3.95;2.20;;;18.30;99.90;;;;;;4969002;28;20046;-82
2022/10/10 13:12:06;;;;;;;4.97;2.25;;;18.30;99.90;;;;;;4979785;28;20078;-82
2022/10/10 13:14:41;;;;;;;4.30;2.15;;;18.20;99.90;;;;;;4960382;28;20042;-81
2022/10/10 13:17:22;;;;;;;5.05;2.50;;;18.20;99.90;;;;;;4961168;28;20029;-82
2022/10/10 13:19:50;;;;;;;5.60;2.65;;;18.10;99.90;;;;;;4966945;28;20023;-83
2022/10/10 13:22:20;;;;;;;4.13;2.25;;;18.00;99.90;;;;;;4974852;28;20474;-82
2022/10/10 13:24:48;;;;;;;3.47;2.25;;;17.90;99.90;;;;;;4959924;28;20031;-82
2022/10/10 13:27:27;;;;;;;5.97;2.72;;;17.80;99.90;;;;;;4962903;28;20027;-82
2022/10/10 13:29:54;;;;;;;4.72;2.65;;;17.90;99.90;;;;;;4983823;28;20194;-82
2022/10/10 13:32:29;;;;;;;5.78;2.63;;;17.80;99.90;;;;;;4968406;28;20078;-83